sensor_id;sensor_type;location;lat;lon;timestamp;pressure;altitude;pressure_sealevel;temperature;humidity
20444;BME280;10381;53.730;10.010;2023-12-07T00:02:31;100854.09;;;-0.65;100.00
20444;BME280;10381;53.730;10.010;2023-12-07T00:06:32;100848.06;;;-0.66;100.00
20444;BME280;10381;53.730;10.010;2023-12-07T00:10:32;100844.56;;;-0.65;100.00
20444;BME280;10381;53.730;10.010;2023-12-07T00:14:32;100833.19;;;-0.62;100.00
20444;BME280;10381;53.730;10.010;2023-12-07T00:18:33;100843.69;;;-0.65;100.00
20444;BME280;10381;53.730;10.010;2023-12-07T00:22:33;100843.97;;;-0.71;100.00
20444;BME280;10381;53.730;10.010;2023-12-07T00:26:33;100842.81;;;-0.64;100.00
20444;BME280;10381;53.730;10.010;2023-12-07T00:30:34;100837.53;;;-0.62;100.00
20444;BME280;10381;53.730;10.010;2023-12-07T00:34:34;100844.47;;;-0.63;100.00
20444;BME280;10381;53.730;10.010;2023-12-07T00:38:34;100834.03;;;-0.61;100.00
20444;BME280;10381;53.730;10.010;2023-12-07T00:42:36;100838.44;;;-0.63;100.00
20444;BME280;10381;53.730;10.010;2023-12-07T00:46:36;100838.38;;;-0.62;100.00
20444;BME280;10381;53.730;10.010;2023-12-07T00:50:37;100852.28;;;-0.63;100.00
20444;BME280;10381;53.730;10.010;2023-12-07T00:54:37;100850.41;;;-0.59;100.00
20444;BME280;10381;53.730;10.010;2023-12-07T00:58:37;100850.09;;;-0.52;100.00
20444;BME280;10381;53.730;10.010;2023-12-07T01:02:38;100841.78;;;-0.60;100.00
20444;BME280;10381;53.730;10.010;2023-12-07T01:06:39;100841.63;;;-0.57;100.00
20444;BME280;10381;53.730;10.010;2023-12-07T01:10:39;100844.28;;;-0.58;100.00
20444;BME280;10381;53.730;10.010;2023-12-07T01:14:39;100846.78;;;-0.55;100.00
20444;BME280;10381;53.730;10.010;2023-12-07T01:18:39;100854.66;;;-0.57;100.00
20444;BME280;10381;53.730;10.010;2023-12-07T01:22:40;100862.47;;;-0.57;100.00
20444;BME280;10381;53.730;10.010;2023-12-07T01:26:45;100866.81;;;-0.57;100.00
20444;BME280;10381;53.730;10.010;2023-12-07T01:30:45;100862.47;;;-0.57;100.00
20444;BME280;10381;53.730;10.010;2023-12-07T01:34:46;100867.66;;;-0.57;100.00
20444;BME280;10381;53.730;10.010;2023-12-07T01:38:46;100878.97;;;-0.58;100.00
20444;BME280;10381;53.730;10.010;2023-12-07T01:42:53;100878.13;;;-0.58;100.00
20444;BME280;10381;53.730;10.010;2023-12-07T01:46:54;100876.34;;;-0.58;100.00
20444;BME280;10381;53.730;10.010;2023-12-07T01:50:55;100883.28;;;-0.57;100.00
20444;BME280;10381;53.730;10.010;2023-12-07T01:54:56;100884.16;;;-0.58;100.00
20444;BME280;10381;53.730;10.010;2023-12-07T01:58:57;100895.38;;;-0.56;100.00
20444;BME280;10381;53.730;10.010;2023-12-07T02:02:58;100877.88;;;-0.52;100.00
20444;BME280;10381;53.730;10.010;2023-12-07T02:06:59;100880.34;;;-0.49;100.00
20444;BME280;10381;53.730;10.010;2023-12-07T02:11:01;100871.84;;;-0.53;100.00
20444;BME280;10381;53.730;10.010;2023-12-07T02:15:03;100858.84;;;-0.53;100.00
20444;BME280;10381;53.730;10.010;2023-12-07T02:19:20;100868.31;;;-0.52;100.00
20444;BME280;10381;53.730;10.010;2023-12-07T02:23:25;100866.50;;;-0.50;100.00
20444;BME280;10381;53.730;10.010;2023-12-07T02:27:44;100866.50;;;-0.50;100.00
20444;BME280;10381;53.730;10.010;2023-12-07T02:31:48;100870.00;;;-0.51;100.00
20444;BME280;10381;53.730;10.010;2023-12-07T02:35:48;100879.50;;;-0.50;100.00
20444;BME280;10381;53.730;10.010;2023-12-07T02:39:49;100877.75;;;-0.49;100.00
20444;BME280;10381;53.730;10.010;2023-12-07T02:43:51;100876.00;;;-0.49;100.00
20444;BME280;10381;53.730;10.010;2023-12-07T02:47:52;100881.28;;;-0.50;100.00
20444;BME280;10381;53.730;10.010;2023-12-07T02:51:52;100878.78;;;-0.53;100.00
20444;BME280;10381;53.730;10.010;2023-12-07T02:55:53;100886.47;;;-0.50;100.00
20444;BME280;10381;53.730;10.010;2023-12-07T02:59:53;100883.78;;;-0.49;100.00
20444;BME280;10381;53.730;10.010;2023-12-07T03:03:53;100887.25;;;-0.48;100.00
20444;BME280;10381;53.730;10.010;2023-12-07T03:07:53;100893.41;;;-0.51;100.00
20444;BME280;10381;53.730;10.010;2023-12-07T03:11:54;100884.84;;;-0.53;100.00
20444;BME280;10381;53.730;10.010;2023-12-07T03:15:54;100882.13;;;-0.50;100.00
20444;BME280;10381;53.730;10.010;2023-12-07T03:19:54;100894.22;;;-0.49;100.00
20444;BME280;10381;53.730;10.010;2023-12-07T03:23:54;100899.38;;;-0.47;100.00
20444;BME280;10381;53.730;10.010;2023-12-07T03:27:55;100901.97;;;-0.47;100.00
20444;BME280;10381;53.730;10.010;2023-12-07T03:31:55;100900.19;;;-0.47;100.00
20444;BME280;10381;53.730;10.010;2023-12-07T03:35:56;100902.94;;;-0.50;100.00
20444;BME280;10381;53.730;10.010;2023-12-07T03:39:56;100903.84;;;-0.51;100.00
20444;BME280;10381;53.730;10.010;2023-12-07T03:43:57;100911.59;;;-0.49;100.00
20444;BME280;10381;53.730;10.010;2023-12-07T03:47:57;100906.25;;;-0.46;100.00
20444;BME280;10381;53.730;10.010;2023-12-07T03:51:57;100917.53;;;-0.46;100.00
20444;BME280;10381;53.730;10.010;2023-12-07T03:55:57;100934.88;;;-0.46;100.00
20444;BME280;10381;53.730;10.010;2023-12-07T03:59:58;100945.09;;;-0.41;100.00
20444;BME280;10381;53.730;10.010;2023-12-07T04:03:58;100949.34;;;-0.39;100.00
20444;BME280;10381;53.730;10.010;2023-12-07T04:07:59;100937.25;;;-0.40;100.00
20444;BME280;10381;53.730;10.010;2023-12-07T04:12:00;100943.13;;;-0.35;100.00
20444;BME280;10381;53.730;10.010;2023-12-07T04:16:00;100946.88;;;-0.42;100.00
20444;BME280;10381;53.730;10.010;2023-12-07T04:20:00;100950.25;;;-0.40;100.00
20444;BME280;10381;53.730;10.010;2023-12-07T04:24:01;100948.38;;;-0.36;100.00
20444;BME280;10381;53.730;10.010;2023-12-07T04:28:01;100945.94;;;-0.41;100.00
20444;BME280;10381;53.730;10.010;2023-12-07T04:32:01;100940.56;;;-0.36;100.00
20444;BME280;10381;53.730;10.010;2023-12-07T04:36:02;100948.50;;;-0.39;100.00
20444;BME280;10381;53.730;10.010;2023-12-07T04:40:05;100939.59;;;-0.34;100.00
20444;BME280;10381;53.730;10.010;2023-12-07T04:44:06;100942.13;;;-0.32;100.00
20444;BME280;10381;53.730;10.010;2023-12-07T04:48:06;100950.78;;;-0.32;100.00
20444;BME280;10381;53.730;10.010;2023-12-07T04:52:06;100943.91;;;-0.33;100.00
20444;BME280;10381;53.730;10.010;2023-12-07T04:56:07;100953.66;;;-0.38;100.00
20444;BME280;10381;53.730;10.010;2023-12-07T05:00:08;100957.22;;;-0.40;100.00
20444;BME280;10381;53.730;10.010;2023-12-07T05:04:11;100969.38;;;-0.41;100.00
20444;BME280;10381;53.730;10.010;2023-12-07T05:08:11;100971.88;;;-0.38;100.00
20444;BME280;10381;53.730;10.010;2023-12-07T05:12:12;100957.75;;;-0.32;100.00
20444;BME280;10381;53.730;10.010;2023-12-07T05:16:12;100967.50;;;-0.37;100.00
20444;BME280;10381;53.730;10.010;2023-12-07T05:20:13;100963.16;;;-0.37;100.00
20444;BME280;10381;53.730;10.010;2023-12-07T05:24:13;100966.78;;;-0.41;100.00
20444;BME280;10381;53.730;10.010;2023-12-07T05:28:14;100978.06;;;-0.40;100.00
20444;BME280;10381;53.730;10.010;2023-12-07T05:32:14;100974.41;;;-0.36;100.00
20444;BME280;10381;53.730;10.010;2023-12-07T05:36:14;100969.31;;;-0.39;100.00
20444;BME280;10381;53.730;10.010;2023-12-07T05:40:14;100976.34;;;-0.41;100.00
20444;BME280;10381;53.730;10.010;2023-12-07T05:44:16;100984.91;;;-0.38;100.00
20444;BME280;10381;53.730;10.010;2023-12-07T05:48:21;100978.72;;;-0.35;100.00
20444;BME280;10381;53.730;10.010;2023-12-07T05:52:21;100976.16;;;-0.37;100.00
20444;BME280;10381;53.730;10.010;2023-12-07T05:56:22;100974.22;;;-0.32;100.00
20444;BME280;10381;53.730;10.010;2023-12-07T06:00:22;100975.28;;;-0.36;100.00
20444;BME280;10381;53.730;10.010;2023-12-07T06:04:23;100969.81;;;-0.30;100.00
20444;BME280;10381;53.730;10.010;2023-12-07T06:08:23;100973.19;;;-0.28;100.00
20444;BME280;10381;53.730;10.010;2023-12-07T06:12:23;100968.84;;;-0.27;100.00
20444;BME280;10381;53.730;10.010;2023-12-07T06:16:24;100977.44;;;-0.25;100.00
20444;BME280;10381;53.730;10.010;2023-12-07T06:20:24;100981.72;;;-0.24;100.00
20444;BME280;10381;53.730;10.010;2023-12-07T06:24:24;100981.00;;;-0.28;100.00
20444;BME280;10381;53.730;10.010;2023-12-07T06:28:25;100968.00;;;-0.28;100.00
20444;BME280;10381;53.730;10.010;2023-12-07T06:32:25;100979.31;;;-0.29;100.00
20444;BME280;10381;53.730;10.010;2023-12-07T06:36:26;100982.91;;;-0.31;100.00
20444;BME280;10381;53.730;10.010;2023-12-07T06:40:27;100985.38;;;-0.28;100.00
20444;BME280;10381;53.730;10.010;2023-12-07T06:44:27;100982.63;;;-0.25;100.00
20444;BME280;10381;53.730;10.010;2023-12-07T06:48:27;100994.06;;;-0.29;100.00
20444;BME280;10381;53.730;10.010;2023-12-07T06:52:28;100998.31;;;-0.27;100.00
20444;BME280;10381;53.730;10.010;2023-12-07T06:56:28;100999.94;;;-0.24;100.00
20444;BME280;10381;53.730;10.010;2023-12-07T07:00:28;101004.38;;;-0.26;100.00
20444;BME280;10381;53.730;10.010;2023-12-07T07:04:28;101000.06;;;-0.27;100.00
20444;BME280;10381;53.730;10.010;2023-12-07T07:08:29;101000.63;;;-0.19;100.00
20444;BME280;10381;53.730;10.010;2023-12-07T07:12:30;100996.31;;;-0.20;100.00
20444;BME280;10381;53.730;10.010;2023-12-07T07:16:30;101008.81;;;-0.28;100.00
20444;BME280;10381;53.730;10.010;2023-12-07T07:20:31;101011.41;;;-0.28;100.00
20444;BME280;10381;53.730;10.010;2023-12-07T07:24:31;101024.44;;;-0.28;100.00
20444;BME280;10381;53.730;10.010;2023-12-07T07:28:31;101019.09;;;-0.25;100.00
20444;BME280;10381;53.730;10.010;2023-12-07T07:32:31;101022.47;;;-0.23;100.00
20444;BME280;10381;53.730;10.010;2023-12-07T07:36:32;101014.53;;;-0.20;100.00
20444;BME280;10381;53.730;10.010;2023-12-07T07:40:32;101008.31;;;-0.16;100.00
20444;BME280;10381;53.730;10.010;2023-12-07T07:44:32;101012.06;;;-0.23;100.00
20444;BME280;10381;53.730;10.010;2023-12-07T07:48:33;101013.75;;;-0.22;100.00
20444;BME280;10381;53.730;10.010;2023-12-07T07:52:33;101016.00;;;-0.13;100.00
20444;BME280;10381;53.730;10.010;2023-12-07T07:56:34;101029.28;;;-0.19;100.00
20444;BME280;10381;53.730;10.010;2023-12-07T08:00:35;101028.22;;;-0.15;100.00
20444;BME280;10381;53.730;10.010;2023-12-07T08:04:36;101034.97;;;-0.09;100.00
20444;BME280;10381;53.730;10.010;2023-12-07T08:08:36;101032.22;;;-0.06;100.00
20444;BME280;10381;53.730;10.010;2023-12-07T08:12:36;101038.78;;;-0.18;100.00
20444;BME280;10381;53.730;10.010;2023-12-07T08:16:36;101039.75;;;-0.20;100.00
20444;BME280;10381;53.730;10.010;2023-12-07T08:20:37;101044.03;;;-0.19;100.00
20444;BME280;10381;53.730;10.010;2023-12-07T08:24:40;101048.81;;;-0.09;100.00
20444;BME280;10381;53.730;10.010;2023-12-07T08:28:41;101051.44;;;-0.09;100.00
20444;BME280;10381;53.730;10.010;2023-12-07T08:32:42;101042.47;;;-0.02;100.00
20444;BME280;10381;53.730;10.010;2023-12-07T08:36:42;101050.47;;;-0.06;100.00
20444;BME280;10381;53.730;10.010;2023-12-07T08:40:42;101053.72;;;-0.01;100.00
20444;BME280;10381;53.730;10.010;2023-12-07T08:44:43;101060.03;;;-0.07;100.00
20444;BME280;10381;53.730;10.010;2023-12-07T08:48:43;101050.69;;;0.10;100.00
20444;BME280;10381;53.730;10.010;2023-12-07T08:52:44;101052.56;;;0.06;100.00
20444;BME280;10381;53.730;10.010;2023-12-07T08:56:45;101055.00;;;0.11;100.00
20444;BME280;10381;53.730;10.010;2023-12-07T09:00:45;101050.41;;;0.38;100.00
20444;BME280;10381;53.730;10.010;2023-12-07T09:04:45;101045.31;;;0.35;100.00
20444;BME280;10381;53.730;10.010;2023-12-07T09:08:46;101041.53;;;0.62;100.00
20444;BME280;10381;53.730;10.010;2023-12-07T09:12:46;101052.19;;;0.58;100.00
20444;BME280;10381;53.730;10.010;2023-12-07T09:16:47;101054.19;;;0.72;100.00
20444;BME280;10381;53.730;10.010;2023-12-07T09:20:47;101050.13;;;0.85;100.00
20444;BME280;10381;53.730;10.010;2023-12-07T09:24:47;101054.09;;;0.53;100.00
20444;BME280;10381;53.730;10.010;2023-12-07T09:28:47;101050.94;;;0.67;100.00
20444;BME280;10381;53.730;10.010;2023-12-07T09:32:48;101049.97;;;1.09;100.00
20444;BME280;10381;53.730;10.010;2023-12-07T09:36:48;101040.31;;;1.30;100.00
20444;BME280;10381;53.730;10.010;2023-12-07T09:40:52;101030.72;;;1.49;100.00
20444;BME280;10381;53.730;10.010;2023-12-07T09:44:54;101035.56;;;1.00;100.00
20444;BME280;10381;53.730;10.010;2023-12-07T09:48:54;101032.00;;;1.21;100.00
20444;BME280;10381;53.730;10.010;2023-12-07T09:52:56;100970.34;;;1.38;100.00
20444;BME280;10381;53.730;10.010;2023-12-07T09:56:57;100947.16;;;2.03;100.00
20444;BME280;10381;53.730;10.010;2023-12-07T10:00:57;100959.16;;;1.53;100.00
20444;BME280;10381;53.730;10.010;2023-12-07T10:05:07;100971.34;;;1.35;100.00
20444;BME280;10381;53.730;10.010;2023-12-07T10:09:09;100992.63;;;0.88;100.00
20444;BME280;10381;53.730;10.010;2023-12-07T10:13:12;100996.03;;;0.70;100.00
20444;BME280;10381;53.730;10.010;2023-12-07T10:17:12;101015.25;;;0.88;100.00
20444;BME280;10381;53.730;10.010;2023-12-07T10:21:13;101027.50;;;0.85;100.00
20444;BME280;10381;53.730;10.010;2023-12-07T10:25:14;101025.59;;;1.28;100.00
20444;BME280;10381;53.730;10.010;2023-12-07T10:29:14;101047.19;;;0.93;100.00
20444;BME280;10381;53.730;10.010;2023-12-07T10:33:19;101051.75;;;0.88;100.00
20444;BME280;10381;53.730;10.010;2023-12-07T10:37:19;101058.16;;;0.80;100.00
20444;BME280;10381;53.730;10.010;2023-12-07T10:41:21;101067.81;;;0.99;100.00
20444;BME280;10381;53.730;10.010;2023-12-07T10:45:29;101075.22;;;1.27;100.00
20444;BME280;10381;53.730;10.010;2023-12-07T10:49:30;101091.63;;;1.10;100.00
20444;BME280;10381;53.730;10.010;2023-12-07T10:53:37;101093.09;;;0.76;100.00
20444;BME280;10381;53.730;10.010;2023-12-07T10:57:40;101112.41;;;0.72;100.00
20444;BME280;10381;53.730;10.010;2023-12-07T11:01:41;101104.94;;;1.24;100.00
20444;BME280;10381;53.730;10.010;2023-12-07T11:05:44;101118.31;;;1.37;100.00
20444;BME280;10381;53.730;10.010;2023-12-07T11:09:50;101113.59;;;1.64;100.00
20444;BME280;10381;53.730;10.010;2023-12-07T11:13:58;101126.47;;;2.05;100.00
20444;BME280;10381;53.730;10.010;2023-12-07T11:18:02;101169.81;;;1.53;100.00
20444;BME280;10381;53.730;10.010;2023-12-07T11:22:05;101188.94;;;1.53;100.00
20444;BME280;10381;53.730;10.010;2023-12-07T11:26:06;101212.06;;;1.01;100.00
20444;BME280;10381;53.730;10.010;2023-12-07T11:30:07;101220.38;;;0.89;100.00
20444;BME280;10381;53.730;10.010;2023-12-07T11:34:07;101221.44;;;0.84;100.00
20444;BME280;10381;53.730;10.010;2023-12-07T11:38:13;101220.75;;;1.01;100.00
20444;BME280;10381;53.730;10.010;2023-12-07T11:42:18;101220.81;;;1.00;100.00
20444;BME280;10381;53.730;10.010;2023-12-07T11:46:19;101228.00;;;0.73;100.00
20444;BME280;10381;53.730;10.010;2023-12-07T11:50:20;101236.81;;;0.70;100.00
20444;BME280;10381;53.730;10.010;2023-12-07T11:54:22;101229.34;;;0.61;100.00
20444;BME280;10381;53.730;10.010;2023-12-07T11:58:27;101220.84;;;0.56;100.00
20444;BME280;10381;53.730;10.010;2023-12-07T12:02:27;101201.97;;;0.71;100.00
20444;BME280;10381;53.730;10.010;2023-12-07T12:06:28;101193.03;;;0.56;100.00
20444;BME280;10381;53.730;10.010;2023-12-07T12:10:29;101197.19;;;0.38;100.00
20444;BME280;10381;53.730;10.010;2023-12-07T12:14:29;101167.38;;;0.88;100.00
20444;BME280;10381;53.730;10.010;2023-12-07T12:18:31;101171.75;;;0.88;100.00
20444;BME280;10381;53.730;10.010;2023-12-07T12:22:32;101162.69;;;0.76;100.00
20444;BME280;10381;53.730;10.010;2023-12-07T12:26:38;101155.97;;;1.11;100.00
20444;BME280;10381;53.730;10.010;2023-12-07T12:30:39;101163.09;;;0.87;100.00
20444;BME280;10381;53.730;10.010;2023-12-07T12:34:39;101156.03;;;1.30;100.00
20444;BME280;10381;53.730;10.010;2023-12-07T12:38:39;101164.69;;;1.89;100.00
20444;BME280;10381;53.730;10.010;2023-12-07T12:42:40;101165.88;;;2.20;100.00
20444;BME280;10381;53.730;10.010;2023-12-07T12:46:40;101177.59;;;2.30;100.00
20444;BME280;10381;53.730;10.010;2023-12-07T12:50:41;101189.66;;;2.32;100.00
20444;BME280;10381;53.730;10.010;2023-12-07T12:54:45;101200.13;;;2.13;100.00
20444;BME280;10381;53.730;10.010;2023-12-07T12:58:45;101213.56;;;2.06;100.00
20444;BME280;10381;53.730;10.010;2023-12-07T13:02:46;101228.78;;;1.77;100.00
20444;BME280;10381;53.730;10.010;2023-12-07T13:06:46;101247.53;;;1.87;100.00
20444;BME280;10381;53.730;10.010;2023-12-07T13:10:46;101248.06;;;1.75;100.00
20444;BME280;10381;53.730;10.010;2023-12-07T13:14:46;101263.97;;;1.89;100.00
20444;BME280;10381;53.730;10.010;2023-12-07T13:18:47;101270.44;;;2.01;100.00
20444;BME280;10381;53.730;10.010;2023-12-07T13:22:47;101277.69;;;1.94;100.00
20444;BME280;10381;53.730;10.010;2023-12-07T13:26:47;101282.66;;;2.00;100.00
20444;BME280;10381;53.730;10.010;2023-12-07T13:30:47;101293.38;;;1.94;100.00
20444;BME280;10381;53.730;10.010;2023-12-07T13:34:48;101304.25;;;2.04;100.00
20444;BME280;10381;53.730;10.010;2023-12-07T13:38:48;101313.69;;;1.87;100.00
20444;BME280;10381;53.730;10.010;2023-12-07T13:42:48;101305.47;;;1.76;100.00
20444;BME280;10381;53.730;10.010;2023-12-07T13:46:49;101319.91;;;1.64;100.00
20444;BME280;10381;53.730;10.010;2023-12-07T13:50:49;101332.38;;;1.58;100.00
20444;BME280;10381;53.730;10.010;2023-12-07T13:54:50;101334.00;;;1.40;100.00
20444;BME280;10381;53.730;10.010;2023-12-07T13:58:50;101327.09;;;1.17;100.00
20444;BME280;10381;53.730;10.010;2023-12-07T14:02:51;101344.88;;;1.07;100.00
20444;BME280;10381;53.730;10.010;2023-12-07T14:06:51;101328.31;;;1.08;100.00
20444;BME280;10381;53.730;10.010;2023-12-07T14:10:52;101321.91;;;0.95;100.00
20444;BME280;10381;53.730;10.010;2023-12-07T14:14:52;101311.59;;;0.92;100.00
20444;BME280;10381;53.730;10.010;2023-12-07T14:18:54;101299.13;;;0.98;100.00
20444;BME280;10381;53.730;10.010;2023-12-07T14:22:55;101295.38;;;0.83;100.00
20444;BME280;10381;53.730;10.010;2023-12-07T14:26:56;101299.94;;;0.78;100.00
20444;BME280;10381;53.730;10.010;2023-12-07T14:30:57;101286.22;;;0.73;100.00
20444;BME280;10381;53.730;10.010;2023-12-07T14:34:59;101274.69;;;0.79;100.00
20444;BME280;10381;53.730;10.010;2023-12-07T14:38:59;101278.03;;;0.82;100.00
20444;BME280;10381;53.730;10.010;2023-12-07T14:42:59;101277.25;;;0.80;100.00
20444;BME280;10381;53.730;10.010;2023-12-07T14:47:00;101276.50;;;0.77;100.00
20444;BME280;10381;53.730;10.010;2023-12-07T14:51:00;101277.25;;;0.80;100.00
20444;BME280;10381;53.730;10.010;2023-12-07T14:55:01;101283.31;;;0.81;100.00
20444;BME280;10381;53.730;10.010;2023-12-07T14:59:04;101285.06;;;0.80;100.00
20444;BME280;10381;53.730;10.010;2023-12-07T15:03:04;101300.72;;;0.80;100.00
20444;BME280;10381;53.730;10.010;2023-12-07T15:07:06;101300.91;;;0.76;100.00
20444;BME280;10381;53.730;10.010;2023-12-07T15:11:06;101297.69;;;0.69;100.00
20444;BME280;10381;53.730;10.010;2023-12-07T15:15:08;101300.38;;;0.68;100.00
20444;BME280;10381;53.730;10.010;2023-12-07T15:19:09;101299.06;;;0.56;100.00
20444;BME280;10381;53.730;10.010;2023-12-07T15:23:09;101278.31;;;0.53;100.00
20444;BME280;10381;53.730;10.010;2023-12-07T15:27:10;101258.38;;;0.52;100.00
20444;BME280;10381;53.730;10.010;2023-12-07T15:31:10;101245.34;;;0.52;100.00
20444;BME280;10381;53.730;10.010;2023-12-07T15:35:16;101232.00;;;0.59;100.00
20444;BME280;10381;53.730;10.010;2023-12-07T15:39:17;101228.03;;;0.51;100.00
20444;BME280;10381;53.730;10.010;2023-12-07T15:43:17;101223.50;;;0.54;100.00
20444;BME280;10381;53.730;10.010;2023-12-07T15:47:17;101218.91;;;0.61;100.00
20444;BME280;10381;53.730;10.010;2023-12-07T15:51:18;101215.69;;;0.54;100.00
20444;BME280;10381;53.730;10.010;2023-12-07T15:55:19;101221.34;;;0.44;100.00
20444;BME280;10381;53.730;10.010;2023-12-07T15:59:19;101216.22;;;0.40;100.00
20444;BME280;10381;53.730;10.010;2023-12-07T16:03:19;101212.59;;;0.45;100.00
20444;BME280;10381;53.730;10.010;2023-12-07T16:07:20;101214.28;;;0.46;100.00
20444;BME280;10381;53.730;10.010;2023-12-07T16:11:20;101208.59;;;0.36;100.00
20444;BME280;10381;53.730;10.010;2023-12-07T16:15:20;101193.69;;;0.39;100.00
20444;BME280;10381;53.730;10.010;2023-12-07T16:19:20;101188.63;;;0.36;100.00
20444;BME280;10381;53.730;10.010;2023-12-07T16:23:21;101186.06;;;0.35;100.00
20444;BME280;10381;53.730;10.010;2023-12-07T16:27:21;101180.88;;;0.33;100.00
20444;BME280;10381;53.730;10.010;2023-12-07T16:31:21;101159.25;;;0.31;100.00
20444;BME280;10381;53.730;10.010;2023-12-07T16:35:22;101163.56;;;0.32;100.00
20444;BME280;10381;53.730;10.010;2023-12-07T16:39:22;101155.69;;;0.34;100.00
20444;BME280;10381;53.730;10.010;2023-12-07T16:43:22;101141.69;;;0.36;100.00
20444;BME280;10381;53.730;10.010;2023-12-07T16:47:23;101124.34;;;0.35;100.00
20444;BME280;10381;53.730;10.010;2023-12-07T16:51:23;101118.25;;;0.36;100.00
20444;BME280;10381;53.730;10.010;2023-12-07T16:55:23;101107.13;;;0.31;100.00
20444;BME280;10381;53.730;10.010;2023-12-07T16:59:25;101091.19;;;0.39;100.00
20444;BME280;10381;53.730;10.010;2023-12-07T17:03:25;101082.13;;;0.48;100.00
20444;BME280;10381;53.730;10.010;2023-12-07T17:07:28;101078.50;;;0.52;100.00
20444;BME280;10381;53.730;10.010;2023-12-07T17:11:29;101060.25;;;0.52;100.00
20444;BME280;10381;53.730;10.010;2023-12-07T17:15:29;101052.19;;;0.58;100.00
20444;BME280;10381;53.730;10.010;2023-12-07T17:19:29;101056.81;;;0.51;100.00
20444;BME280;10381;53.730;10.010;2023-12-07T17:23:29;101043.44;;;0.59;100.00
20444;BME280;10381;53.730;10.010;2023-12-07T17:27:30;101045.00;;;0.63;100.00
20444;BME280;10381;53.730;10.010;2023-12-07T17:31:30;101043.03;;;0.68;100.00
20444;BME280;10381;53.730;10.010;2023-12-07T17:35:30;101029.38;;;0.63;100.00
20444;BME280;10381;53.730;10.010;2023-12-07T17:39:30;101024.25;;;0.60;100.00
20444;BME280;10381;53.730;10.010;2023-12-07T17:43:31;101024.19;;;0.61;100.00
20444;BME280;10381;53.730;10.010;2023-12-07T17:47:31;101012.16;;;0.59;100.00
20444;BME280;10381;53.730;10.010;2023-12-07T17:51:31;101024.16;;;0.63;100.00
20444;BME280;10381;53.730;10.010;2023-12-07T17:55:32;101013.00;;;0.59;100.00
20444;BME280;10381;53.730;10.010;2023-12-07T17:59:32;101009.34;;;0.63;100.00
20444;BME280;10381;53.730;10.010;2023-12-07T18:03:32;101006.94;;;0.59;100.00
20444;BME280;10381;53.730;10.010;2023-12-07T18:07:35;100999.13;;;0.59;100.00
20444;BME280;10381;53.730;10.010;2023-12-07T18:11:35;101001.72;;;0.59;100.00
20444;BME280;10381;53.730;10.010;2023-12-07T18:15:35;101000.16;;;0.55;100.00
20444;BME280;10381;53.730;10.010;2023-12-07T18:19:35;100988.09;;;0.52;100.00
20444;BME280;10381;53.730;10.010;2023-12-07T18:23:36;100975.00;;;0.54;100.00
20444;BME280;10381;53.730;10.010;2023-12-07T18:27:37;100972.78;;;0.45;100.00
20444;BME280;10381;53.730;10.010;2023-12-07T18:31:38;100962.22;;;0.48;100.00
20444;BME280;10381;53.730;10.010;2023-12-07T18:35:38;100967.38;;;0.49;100.00
20444;BME280;10381;53.730;10.010;2023-12-07T18:39:38;100972.59;;;0.29;100.00
20444;BME280;10381;53.730;10.010;2023-12-07T18:43:38;100965.75;;;0.26;100.00
20444;BME280;10381;53.730;10.010;2023-12-07T18:47:39;100958.38;;;0.36;100.00
20444;BME280;10381;53.730;10.010;2023-12-07T18:51:39;100964.19;;;0.42;100.00
20444;BME280;10381;53.730;10.010;2023-12-07T18:55:40;100969.00;;;0.31;100.00
20444;BME280;10381;53.730;10.010;2023-12-07T18:59:41;100959.13;;;0.39;100.00
20444;BME280;10381;53.730;10.010;2023-12-07T19:03:41;100955.97;;;0.31;100.00
20444;BME280;10381;53.730;10.010;2023-12-07T19:07:43;100965.69;;;0.28;100.00
20444;BME280;10381;53.730;10.010;2023-12-07T19:11:44;100957.19;;;0.24;100.00
20444;BME280;10381;53.730;10.010;2023-12-07T19:15:46;100953.97;;;0.17;100.00
20444;BME280;10381;53.730;10.010;2023-12-07T19:19:46;100962.00;;;0.13;100.00
20444;BME280;10381;53.730;10.010;2023-12-07T19:23:47;100961.91;;;0.14;100.00
20444;BME280;10381;53.730;10.010;2023-12-07T19:27:49;100948.56;;;0.22;100.00
20444;BME280;10381;53.730;10.010;2023-12-07T19:31:51;100948.69;;;-0.02;100.00
20444;BME280;10381;53.730;10.010;2023-12-07T19:35:51;100950.13;;;0.06;100.00
20444;BME280;10381;53.730;10.010;2023-12-07T19:39:51;100951.75;;;0.08;100.00
20444;BME280;10381;53.730;10.010;2023-12-07T19:43:52;100950.53;;;0.17;100.00
20444;BME280;10381;53.730;10.010;2023-12-07T19:47:52;100949.63;;;0.18;100.00
20444;BME280;10381;53.730;10.010;2023-12-07T19:51:52;100953.25;;;0.14;100.00
20444;BME280;10381;53.730;10.010;2023-12-07T19:55:52;100954.03;;;0.16;100.00
20444;BME280;10381;53.730;10.010;2023-12-07T19:59:53;100956.69;;;0.14;100.00
20444;BME280;10381;53.730;10.010;2023-12-07T20:03:54;100955.47;;;0.23;100.00
20444;BME280;10381;53.730;10.010;2023-12-07T20:07:54;100952.72;;;0.26;100.00
20444;BME280;10381;53.730;10.010;2023-12-07T20:11:55;100947.50;;;0.26;100.00
20444;BME280;10381;53.730;10.010;2023-12-07T20:15:56;100948.56;;;0.22;100.00
20444;BME280;10381;53.730;10.010;2023-12-07T20:19:56;100941.28;;;0.10;100.00
20444;BME280;10381;53.730;10.010;2023-12-07T20:23:57;100941.00;;;0.16;100.00
20444;BME280;10381;53.730;10.010;2023-12-07T20:27:57;100926.16;;;0.18;100.00
20444;BME280;10381;53.730;10.010;2023-12-07T20:31:57;100921.88;;;0.17;100.00
20444;BME280;10381;53.730;10.010;2023-12-07T20:35:57;100922.72;;;0.17;100.00